Time;durP1;ratioP1;P1;durP2;ratioP2;P2;SDS_P1;SDS_P2;PMS_P1;PMS_P2;Temp;Humidity;BMP_temperature;BMP_pressure;BME280_temperature;BME280_humidity;BME280_pressure;Samples;Min_cycle;Max_cycle;Signal;HPM_P1;HPM_P2
2024/01/21 00:00:34;;;;;;;11.83;5.77;;;-7.10;99.90;;;;;;2053839;28;20228;-66
2024/01/21 00:01:35;;;;;;;13.17;6.33;;;-7.10;99.90;;;;;;2054403;28;20693;-65
2024/01/21 00:02:36;;;;;;;11.27;6.18;;;-7.20;99.90;;;;;;2065772;28;20296;-65
2024/01/21 00:03:38;;;;;;;14.15;6.32;;;-7.10;99.90;;;;;;2071298;28;20296;-65
2024/01/21 00:04:39;;;;;;;11.23;5.63;;;-7.00;99.90;;;;;;2065474;28;20933;-65
2024/01/21 00:05:39;;;;;;;10.47;5.93;;;-7.00;99.90;;;;;;2064413;28;20272;-65
2024/01/21 00:06:40;;;;;;;9.77;5.23;;;-6.90;99.90;;;;;;2069586;28;20251;-65
2024/01/21 00:07:41;;;;;;;9.17;5.33;;;-6.90;99.90;;;;;;2061991;28;20271;-66
2024/01/21 00:08:41;;;;;;;15.93;6.63;;;-6.90;99.70;;;;;;2062512;28;20218;-66
2024/01/21 00:09:42;;;;;;;15.67;7.17;;;-7.00;99.30;;;;;;2069790;28;20227;-64
2024/01/21 00:10:43;;;;;;;13.13;6.63;;;-7.00;99.00;;;;;;2062022;28;20249;-65
2024/01/21 00:11:43;;;;;;;11.73;5.77;;;-6.90;99.30;;;;;;2061822;28;21004;-66
2024/01/21 00:12:44;;;;;;;13.57;6.87;;;-7.00;99.00;;;;;;2061191;28;20226;-65
2024/01/21 00:13:45;;;;;;;11.37;5.93;;;-6.90;98.80;;;;;;2064898;28;20249;-65
2024/01/21 00:14:45;;;;;;;14.97;6.17;;;-6.90;99.00;;;;;;2069963;28;20772;-66
2024/01/21 00:15:46;;;;;;;9.33;4.70;;;-7.00;99.20;;;;;;2070308;28;20232;-64
2024/01/21 00:16:47;;;;;;;9.97;5.40;;;-7.00;99.30;;;;;;2064118;28;20229;-65
2024/01/21 00:17:47;;;;;;;11.00;5.83;;;-7.20;99.00;;;;;;2063177;28;20760;-66
2024/01/21 00:18:48;;;;;;;8.00;4.73;;;-7.20;99.00;;;;;;2063860;28;20222;-64
2024/01/21 00:19:49;;;;;;;10.83;5.10;;;-7.30;98.80;;;;;;2047001;28;20265;-65
2024/01/21 00:20:49;;;;;;;11.47;5.83;;;-7.30;99.20;;;;;;2052965;28;20233;-65
2024/01/21 00:21:50;;;;;;;9.83;4.67;;;-7.20;99.90;;;;;;2068230;28;20307;-65
2024/01/21 00:22:50;;;;;;;10.40;5.50;;;-7.20;99.90;;;;;;2062275;28;20236;-66
2024/01/21 00:23:51;;;;;;;10.27;5.23;;;-7.20;99.90;;;;;;2052906;28;20235;-65
2024/01/21 00:24:52;;;;;;;12.60;5.90;;;-7.10;99.90;;;;;;2061604;28;20238;-64
2024/01/21 00:25:53;;;;;;;10.97;6.03;;;-7.20;99.90;;;;;;2070331;28;20229;-66
2024/01/21 00:26:53;;;;;;;10.67;5.87;;;-7.20;99.90;;;;;;2064835;28;20720;-65
2024/01/21 00:27:54;;;;;;;15.10;6.53;;;-7.20;99.80;;;;;;2056279;28;20316;-65
2024/01/21 00:28:56;;;;;;;13.13;7.00;;;-7.20;99.90;;;;;;2056270;28;20221;-65
2024/01/21 00:29:57;;;;;;;15.02;6.97;;;-7.10;99.90;;;;;;2063758;28;20273;-66
2024/01/21 00:30:58;;;;;;;11.17;6.17;;;-7.20;99.90;;;;;;2070162;28;20218;-65
2024/01/21 00:31:58;;;;;;;10.33;5.60;;;-7.10;99.90;;;;;;2063824;28;20241;-65
2024/01/21 00:32:59;;;;;;;7.03;4.10;;;-7.30;99.90;;;;;;2059259;28;20228;-66
2024/01/21 00:34:00;;;;;;;6.20;4.07;;;-7.20;99.90;;;;;;2066119;28;20221;-65
2024/01/21 00:35:00;;;;;;;7.80;4.27;;;-7.20;99.90;;;;;;2071326;28;20252;-65
2024/01/21 00:36:01;;;;;;;6.23;3.70;;;-7.20;99.90;;;;;;2060256;28;20260;-65
2024/01/21 00:37:02;;;;;;;8.03;4.10;;;-7.40;99.90;;;;;;2065301;28;20845;-64
2024/01/21 00:38:03;;;;;;;6.80;4.10;;;-7.30;99.90;;;;;;2070413;28;20226;-65
2024/01/21 00:39:03;;;;;;;7.45;4.50;;;-7.30;99.90;;;;;;2068422;28;20284;-64
2024/01/21 00:40:08;;;;;;;8.70;4.57;;;-7.30;99.90;;;;;;2063663;28;20665;-64
2024/01/21 00:41:16;;;;;;;7.75;3.60;;;-7.30;99.90;;;;;;2064415;28;20272;-65
2024/01/21 00:42:16;;;;;;;6.97;3.75;;;-7.30;99.90;;;;;;2066855;28;20225;-63
2024/01/21 00:43:17;;;;;;;6.27;3.27;;;-7.30;99.90;;;;;;2069588;28;20589;-65
2024/01/21 00:44:18;;;;;;;10.13;3.73;;;-7.30;99.90;;;;;;2062527;28;20225;-66
2024/01/21 00:45:19;;;;;;;7.70;3.55;;;-7.20;99.90;;;;;;2053733;28;20187;-66
2024/01/21 00:46:20;;;;;;;8.47;4.23;;;-7.40;99.60;;;;;;2053281;28;20187;-66
2024/01/21 00:47:21;;;;;;;8.90;3.87;;;-7.50;99.40;;;;;;2064495;28;20237;-64
2024/01/21 00:48:22;;;;;;;7.80;3.58;;;-7.40;99.60;;;;;;2065329;28;20233;-66
2024/01/21 00:49:23;;;;;;;5.23;3.50;;;-7.40;99.20;;;;;;2065237;28;20743;-64
2024/01/21 00:50:23;;;;;;;8.33;4.53;;;-7.50;99.20;;;;;;2070598;28;20698;-65
2024/01/21 00:51:24;;;;;;;7.23;3.73;;;-7.40;99.90;;;;;;2066671;28;20223;-65
2024/01/21 00:52:25;;;;;;;7.63;3.83;;;-7.50;99.70;;;;;;2056283;28;20218;-65
2024/01/21 00:53:26;;;;;;;8.87;4.23;;;-7.40;99.80;;;;;;2055145;28;20272;-65
2024/01/21 00:54:27;;;;;;;8.60;4.22;;;-7.30;99.90;;;;;;2062994;28;20636;-64
2024/01/21 00:55:28;;;;;;;7.53;4.33;;;-7.30;99.80;;;;;;2062752;28;20217;-66
2024/01/21 00:56:28;;;;;;;9.20;4.67;;;-7.30;99.90;;;;;;2062270;28;20652;-65
2024/01/21 00:57:29;;;;;;;8.53;3.47;;;-7.40;99.90;;;;;;2055814;28;20238;-66
2024/01/21 00:58:29;;;;;;;6.20;4.47;;;-7.30;99.90;;;;;;2055609;28;20285;-65
2024/01/21 00:59:30;;;;;;;8.03;3.83;;;-7.30;99.90;;;;;;2066674;28;20225;-65
2024/01/21 01:00:31;;;;;;;7.47;3.33;;;-7.30;99.90;;;;;;2071709;28;20692;-65
2024/01/21 01:01:37;;;;;;;6.30;3.27;;;-7.40;99.90;;;;;;2062195;28;20239;-65
2024/01/21 01:02:38;;;;;;;12.23;4.78;;;-7.20;99.90;;;;;;2064586;28;20236;-65
2024/01/21 01:03:39;;;;;;;10.47;4.93;;;-7.30;99.90;;;;;;2071711;28;20217;-64
2024/01/21 01:04:39;;;;;;;13.27;5.27;;;-7.20;99.90;;;;;;2064533;28;20226;-65
2024/01/21 01:05:40;;;;;;;10.77;4.57;;;-7.30;99.90;;;;;;2064536;28;20221;-65
2024/01/21 01:06:41;;;;;;;10.13;4.93;;;-7.40;99.90;;;;;;2072313;28;20259;-65
2024/01/21 01:07:42;;;;;;;10.67;4.57;;;-7.40;99.90;;;;;;2061123;28;20550;-66
2024/01/21 01:08:42;;;;;;;8.33;4.07;;;-7.40;99.90;;;;;;2063746;28;20664;-66
2024/01/21 01:09:43;;;;;;;7.37;3.90;;;-7.40;99.90;;;;;;2071893;28;20225;-65
2024/01/21 01:10:44;;;;;;;9.27;3.93;;;-7.30;99.90;;;;;;2066346;28;20222;-66
2024/01/21 01:11:45;;;;;;;7.97;4.17;;;-7.40;99.90;;;;;;2067146;28;20227;-65
2024/01/21 01:12:45;;;;;;;8.30;3.87;;;-7.40;99.90;;;;;;2071909;28;20225;-65
2024/01/21 01:13:46;;;;;;;7.67;3.83;;;-7.50;99.90;;;;;;2071400;28;20697;-65
2024/01/21 01:14:47;;;;;;;9.27;4.00;;;-7.50;99.90;;;;;;2065460;28;21077;-64
2024/01/21 01:15:48;;;;;;;8.00;4.10;;;-7.40;99.90;;;;;;2065489;28;20698;-65
2024/01/21 01:16:48;;;;;;;7.47;3.70;;;-7.40;99.90;;;;;;2064818;28;20284;-66
2024/01/21 01:17:51;;;;;;;8.67;4.43;;;-7.40;99.90;;;;;;2048013;28;20219;-65
2024/01/21 01:18:51;;;;;;;7.95;4.50;;;-7.30;99.90;;;;;;2056579;28;20219;-65
2024/01/21 01:19:52;;;;;;;9.23;4.17;;;-7.30;99.90;;;;;;2071683;28;20230;-66
2024/01/21 01:20:53;;;;;;;8.20;4.73;;;-7.30;99.90;;;;;;2063383;28;20682;-65
2024/01/21 01:21:54;;;;;;;10.53;4.50;;;-7.30;99.90;;;;;;2063578;28;20234;-66
2024/01/21 01:22:54;;;;;;;5.27;2.93;;;-7.30;99.90;;;;;;2070488;28;20714;-66
2024/01/21 01:23:55;;;;;;;4.10;2.67;;;-7.30;99.90;;;;;;2057802;28;20226;-65
2024/01/21 01:24:56;;;;;;;3.57;1.97;;;-7.30;99.90;;;;;;2050569;28;20283;-66
2024/01/21 01:25:56;;;;;;;4.73;1.80;;;-7.30;99.90;;;;;;2057553;28;20671;-66
2024/01/21 01:26:57;;;;;;;2.63;1.50;;;-7.10;99.90;;;;;;2066048;28;20222;-64
2024/01/21 01:27:58;;;;;;;3.50;1.87;;;-7.00;99.90;;;;;;2071840;28;20225;-66
2024/01/21 01:28:58;;;;;;;4.80;2.20;;;-6.90;99.90;;;;;;2072237;28;20228;-65
2024/01/21 01:29:59;;;;;;;2.27;1.60;;;-6.90;99.90;;;;;;2071357;28;20654;-65
2024/01/21 01:31:00;;;;;;;3.00;2.00;;;-6.80;99.90;;;;;;2071684;28;20629;-66
2024/01/21 01:32:01;;;;;;;4.20;2.30;;;-6.80;99.90;;;;;;2055131;28;20238;-64
2024/01/21 01:33:02;;;;;;;4.47;2.13;;;-6.70;99.90;;;;;;2062921;28;20194;-64
2024/01/21 01:34:03;;;;;;;5.38;2.88;;;-6.80;99.90;;;;;;2070746;28;20204;-65
2024/01/21 01:35:05;;;;;;;3.85;2.42;;;-6.80;99.90;;;;;;2066322;28;20217;-64
2024/01/21 01:36:05;;;;;;;5.03;2.28;;;-6.80;99.90;;;;;;2060093;28;20348;-65
2024/01/21 01:37:08;;;;;;;3.90;2.20;;;-6.90;99.40;;;;;;2071926;28;20190;-66
2024/01/21 01:38:12;;;;;;;4.93;2.38;;;-6.90;99.70;;;;;;2071603;28;20196;-65
2024/01/21 01:39:12;;;;;;;5.50;2.78;;;-6.90;99.50;;;;;;2064786;28;20189;-66
2024/01/21 01:40:17;;;;;;;4.50;2.60;;;-6.90;99.20;;;;;;2062150;28;20205;-64
2024/01/21 01:41:18;;;;;;;7.15;2.80;;;-6.80;99.00;;;;;;2061948;28;20279;-66
2024/01/21 01:42:19;;;;;;;7.33;3.23;;;-6.80;98.40;;;;;;2063288;28;20214;-64
2024/01/21 01:43:19;;;;;;;4.53;2.23;;;-6.90;98.00;;;;;;2069538;28;20540;-65
2024/01/21 01:44:20;;;;;;;4.03;2.67;;;-6.90;97.50;;;;;;2072059;28;20283;-65
2024/01/21 01:45:20;;;;;;;4.30;3.00;;;-6.90;97.50;;;;;;2066778;28;21079;-66
2024/01/21 01:46:22;;;;;;;5.33;2.80;;;-6.90;97.20;;;;;;2066067;28;20292;-64
2024/01/21 01:47:22;;;;;;;5.43;2.67;;;-7.10;96.90;;;;;;2071003;28;20225;-65
2024/01/21 01:48:23;;;;;;;7.00;2.80;;;-7.10;97.10;;;;;;2071802;28;20229;-65
2024/01/21 01:49:24;;;;;;;4.23;2.80;;;-7.10;97.50;;;;;;2071120;28;20225;-65
2024/01/21 01:50:26;;;;;;;4.20;2.10;;;-7.10;97.70;;;;;;2065050;28;20229;-65
2024/01/21 01:51:27;;;;;;;5.90;2.65;;;-7.20;97.80;;;;;;2064013;28;20816;-65
2024/01/21 01:52:28;;;;;;;3.77;2.67;;;-7.20;98.10;;;;;;2063538;28;20222;-65
2024/01/21 01:53:29;;;;;;;4.80;3.00;;;-7.30;97.90;;;;;;2054516;28;20698;-65
2024/01/21 01:54:31;;;;;;;4.43;2.28;;;-7.40;97.90;;;;;;2054784;28;20453;-65
2024/01/21 01:55:32;;;;;;;3.50;2.08;;;-7.40;98.20;;;;;;2058287;28;20222;-66
2024/01/21 01:56:33;;;;;;;4.80;2.00;;;-7.40;98.80;;;;;;2058229;28;20325;-66
2024/01/21 01:57:34;;;;;;;3.10;2.10;;;-7.40;99.20;;;;;;2057218;28;20218;-64
2024/01/21 01:58:37;;;;;;;4.13;1.88;;;-7.30;99.70;;;;;;2066084;28;21016;-65
2024/01/21 01:59:38;;;;;;;3.83;1.85;;;-7.30;99.70;;;;;;2071174;28;20217;-65
2024/01/21 02:00:39;;;;;;;2.95;1.38;;;-7.30;99.40;;;;;;2071410;28;20252;-65
2024/01/21 02:01:40;;;;;;;2.15;1.67;;;-7.20;99.90;;;;;;2062986;28;20217;-65
2024/01/21 02:02:42;;;;;;;1.77;1.30;;;-7.00;99.90;;;;;;2054933;28;20774;-66
2024/01/21 02:03:42;;;;;;;1.65;1.20;;;-7.10;99.90;;;;;;2054846;28;20215;-65
2024/01/21 02:04:43;;;;;;;2.07;1.20;;;-7.00;99.90;;;;;;2054417;28;20227;-66
2024/01/21 02:05:45;;;;;;;2.33;1.20;;;-6.90;99.90;;;;;;2061882;28;20276;-65
2024/01/21 02:06:46;;;;;;;3.85;2.05;;;-6.70;99.90;;;;;;2062232;28;20249;-64
2024/01/21 02:07:47;;;;;;;3.00;1.60;;;-6.80;99.90;;;;;;2063840;28;20225;-66
2024/01/21 02:08:47;;;;;;;4.40;1.75;;;-6.70;99.90;;;;;;2064482;28;20226;-65
2024/01/21 02:09:48;;;;;;;3.67;1.70;;;-6.70;99.90;;;;;;2056821;28;20966;-65
2024/01/21 02:10:49;;;;;;;4.17;1.90;;;-6.70;99.00;;;;;;2065778;28;20718;-65
2024/01/21 02:11:49;;;;;;;1.97;1.20;;;-6.70;98.50;;;;;;2070056;28;20225;-65
2024/01/21 02:12:53;;;;;;;2.53;1.47;;;-6.80;99.10;;;;;;2070765;28;20435;-65
2024/01/21 02:13:54;;;;;;;3.03;1.48;;;-6.80;99.60;;;;;;2064336;28;20632;-64
2024/01/21 02:14:55;;;;;;;1.67;1.13;;;-6.70;99.60;;;;;;2064176;28;20237;-65
2024/01/21 02:15:55;;;;;;;1.93;1.50;;;-6.80;99.50;;;;;;2071964;28;20260;-65
2024/01/21 02:16:56;;;;;;;1.83;1.33;;;-6.80;99.10;;;;;;2070061;28;20249;-65
2024/01/21 02:17:57;;;;;;;2.87;1.50;;;-6.70;99.10;;;;;;2070420;28;20283;-65
2024/01/21 02:18:58;;;;;;;2.00;1.43;;;-6.80;99.00;;;;;;2066292;28;20225;-65
2024/01/21 02:19:59;;;;;;;1.52;1.10;;;-6.60;99.20;;;;;;2063799;28;20644;-65
2024/01/21 02:20:59;;;;;;;1.97;1.10;;;-6.70;99.50;;;;;;2055681;28;20311;-65
2024/01/21 02:22:00;;;;;;;1.63;1.23;;;-6.40;99.30;;;;;;2055901;28;20734;-65
2024/01/21 02:23:02;;;;;;;1.60;0.90;;;-6.20;98.70;;;;;;2062662;28;21878;-64
2024/01/21 02:24:03;;;;;;;1.27;0.95;;;-6.20;98.60;;;;;;2061398;28;20273;-65
2024/01/21 02:25:04;;;;;;;1.33;1.13;;;-6.00;98.70;;;;;;2054493;28;20191;-65
2024/01/21 02:26:04;;;;;;;1.50;1.00;;;-6.00;98.60;;;;;;2047174;28;20191;-65
2024/01/21 02:27:05;;;;;;;1.83;1.10;;;-5.80;99.20;;;;;;2054082;28;20234;-64
2024/01/21 02:28:06;;;;;;;1.93;1.10;;;-5.70;98.30;;;;;;2060374;28;20190;-62
2024/01/21 02:29:07;;;;;;;2.17;1.07;;;-5.70;97.80;;;;;;2062409;28;20277;-65
2024/01/21 02:30:08;;;;;;;1.53;1.27;;;-5.60;97.90;;;;;;2069123;28;20213;-66
2024/01/21 02:31:08;;;;;;;1.23;1.00;;;-5.50;98.50;;;;;;2062541;28;20241;-65
2024/01/21 02:32:09;;;;;;;1.37;1.10;;;-5.50;97.20;;;;;;2054459;28;20651;-65
2024/01/21 02:33:09;;;;;;;1.90;1.10;;;-5.50;97.90;;;;;;2056145;28;20188;-65
2024/01/21 02:34:10;;;;;;;1.77;1.00;;;-5.50;98.40;;;;;;2059910;28;20186;-65
2024/01/21 02:35:11;;;;;;;1.87;1.30;;;-5.50;98.40;;;;;;2068349;28;20648;-65
2024/01/21 02:36:11;;;;;;;1.63;1.10;;;-5.50;97.00;;;;;;2068913;28;20182;-65
2024/01/21 02:37:12;;;;;;;1.43;1.10;;;-5.50;97.20;;;;;;2069802;28;20186;-65
2024/01/21 02:38:13;;;;;;;1.30;1.13;;;-5.50;97.70;;;;;;2070178;28;20684;-65
2024/01/21 02:39:14;;;;;;;1.57;1.20;;;-5.40;96.90;;;;;;2070210;28;20178;-65
2024/01/21 02:40:14;;;;;;;2.10;1.40;;;-5.50;96.80;;;;;;2069035;28;20185;-66
2024/01/21 02:41:15;;;;;;;1.57;1.20;;;-5.50;96.90;;;;;;2069186;28;20178;-65
2024/01/21 02:42:16;;;;;;;2.07;1.43;;;-5.40;96.80;;;;;;2064029;28;20311;-65
2024/01/21 02:43:16;;;;;;;1.50;1.17;;;-5.40;96.90;;;;;;2055115;28;20262;-65
2024/01/21 02:44:17;;;;;;;2.60;1.10;;;-5.40;96.70;;;;;;2057802;28;20566;-65
2024/01/21 02:45:18;;;;;;;1.73;1.30;;;-5.40;96.60;;;;;;2065162;28;20198;-66
2024/01/21 02:46:19;;;;;;;2.05;1.35;;;-5.40;97.10;;;;;;2069988;28;20181;-65
2024/01/21 02:47:19;;;;;;;4.33;1.50;;;-5.50;97.00;;;;;;2062982;28;20249;-66
2024/01/21 02:48:20;;;;;;;1.80;1.50;;;-5.50;97.30;;;;;;2054531;28;22079;-64
2024/01/21 02:49:23;;;;;;;1.90;1.40;;;-5.60;97.10;;;;;;2061899;28;20687;-65
2024/01/21 02:50:24;;;;;;;2.35;1.30;;;-5.60;97.00;;;;;;2069390;28;20229;-65
2024/01/21 02:51:25;;;;;;;2.07;1.47;;;-5.60;96.80;;;;;;2061244;28;20228;-64
2024/01/21 02:52:26;;;;;;;1.73;1.05;;;-5.60;97.20;;;;;;2064743;28;20682;-65
2024/01/21 02:53:26;;;;;;;1.43;1.33;;;-5.70;96.90;;;;;;2066589;28;20221;-64
2024/01/21 02:54:27;;;;;;;3.13;1.70;;;-5.60;97.30;;;;;;2065662;28;20285;-65
2024/01/21 02:55:28;;;;;;;3.27;1.53;;;-5.60;97.60;;;;;;2069743;28;20301;-65
2024/01/21 02:56:28;;;;;;;2.03;1.30;;;-5.50;97.80;;;;;;2063965;28;20224;-64
2024/01/21 02:57:29;;;;;;;1.50;1.20;;;-5.50;97.40;;;;;;2055177;28;20226;-65
2024/01/21 02:58:30;;;;;;;1.70;1.30;;;-5.50;95.00;;;;;;2062563;28;20245;-65
2024/01/21 02:59:30;;;;;;;3.53;2.63;;;-5.60;95.50;;;;;;2069842;28;20237;-64
2024/01/21 03:00:31;;;;;;;2.93;1.80;;;-5.70;95.80;;;;;;2071449;28;20234;-65
2024/01/21 03:01:34;;;;;;;2.20;1.53;;;-5.80;95.60;;;;;;2069354;28;20229;-65
2024/01/21 03:02:35;;;;;;;2.05;1.50;;;-6.00;95.60;;;;;;2069578;28;20225;-63
2024/01/21 03:03:35;;;;;;;2.72;1.50;;;-6.00;95.70;;;;;;2061540;28;20214;-64
2024/01/21 03:04:36;;;;;;;3.00;1.50;;;-6.00;95.50;;;;;;2056692;28;20254;-65
2024/01/21 03:05:37;;;;;;;4.13;1.60;;;-6.00;95.40;;;;;;2064742;28;20229;-64
2024/01/21 03:06:38;;;;;;;3.30;1.73;;;-6.20;95.30;;;;;;2068071;28;20248;-65
2024/01/21 03:07:39;;;;;;;4.03;1.90;;;-6.20;95.70;;;;;;2063611;28;20225;-64
2024/01/21 03:08:39;;;;;;;6.33;3.40;;;-6.30;96.30;;;;;;2055662;28;20236;-64
2024/01/21 03:09:40;;;;;;;2.00;1.67;;;-6.50;96.70;;;;;;2062502;28;20764;-65
2024/01/21 03:10:41;;;;;;;2.50;2.00;;;-6.60;96.90;;;;;;2063131;28;20226;-65
2024/01/21 03:11:42;;;;;;;3.33;1.70;;;-6.60;97.20;;;;;;2054501;28;20544;-65
2024/01/21 03:12:42;;;;;;;4.27;2.00;;;-6.60;97.40;;;;;;2061804;28;20709;-65
2024/01/21 03:13:43;;;;;;;2.80;1.70;;;-6.60;97.70;;;;;;2069725;28;20225;-65
2024/01/21 03:14:44;;;;;;;3.03;1.70;;;-6.60;97.80;;;;;;2070352;28;20220;-66
2024/01/21 03:15:44;;;;;;;4.33;1.90;;;-6.70;97.70;;;;;;2068915;28;20237;-65
2024/01/21 03:16:45;;;;;;;2.77;1.70;;;-6.70;97.60;;;;;;2068142;28;20213;-65
2024/01/21 03:17:46;;;;;;;2.43;1.50;;;-6.70;97.60;;;;;;2068307;28;20226;-65
2024/01/21 03:18:46;;;;;;;3.60;2.03;;;-6.70;97.40;;;;;;2054200;28;20273;-65
2024/01/21 03:19:47;;;;;;;3.10;1.93;;;-6.70;97.40;;;;;;2038750;29;20308;-64
2024/01/21 03:20:48;;;;;;;3.77;1.50;;;-6.70;97.40;;;;;;2053520;28;20258;-65
2024/01/21 03:21:48;;;;;;;2.73;1.60;;;-6.70;97.50;;;;;;2060987;28;20338;-65
2024/01/21 03:22:49;;;;;;;5.00;2.20;;;-6.80;97.40;;;;;;2060695;28;20225;-64
2024/01/21 03:23:50;;;;;;;2.57;1.53;;;-6.80;97.50;;;;;;2060395;28;20724;-65
2024/01/21 03:24:51;;;;;;;3.83;2.17;;;-6.80;98.00;;;;;;2061174;28;20261;-65
2024/01/21 03:25:51;;;;;;;2.28;1.50;;;-6.80;98.10;;;;;;2052295;28;20250;-65
2024/01/21 03:26:52;;;;;;;2.93;1.97;;;-6.90;98.10;;;;;;2048775;28;20219;-65
2024/01/21 03:27:53;;;;;;;2.30;1.77;;;-6.80;98.40;;;;;;2057396;28;20227;-64
2024/01/21 03:28:54;;;;;;;2.97;1.73;;;-6.80;98.80;;;;;;2063673;28;20284;-65
2024/01/21 03:29:55;;;;;;;3.23;1.83;;;-6.80;98.70;;;;;;2069156;28;20282;-65
2024/01/21 03:30:56;;;;;;;2.40;1.75;;;-6.70;99.00;;;;;;2069004;28;20229;-65
2024/01/21 03:31:56;;;;;;;2.57;1.93;;;-6.70;98.90;;;;;;2061018;28;20226;-65
2024/01/21 03:32:57;;;;;;;3.00;2.13;;;-6.70;98.90;;;;;;2064175;28;20706;-64
2024/01/21 03:33:58;;;;;;;2.83;1.73;;;-6.60;99.00;;;;;;2068078;28;20213;-62
2024/01/21 03:34:58;;;;;;;3.40;2.03;;;-6.60;98.60;;;;;;2066570;28;20279;-65
2024/01/21 03:36:01;;;;;;;3.17;1.80;;;-6.60;98.50;;;;;;2069615;28;20238;-63
2024/01/21 03:37:02;;;;;;;2.28;1.90;;;-6.60;98.50;;;;;;2066936;28;20692;-63
2024/01/21 03:38:02;;;;;;;2.90;1.87;;;-6.60;98.80;;;;;;2061500;28;20183;-64
2024/01/21 03:39:03;;;;;;;2.47;1.67;;;-6.50;98.20;;;;;;2060469;28;20660;-63
2024/01/21 03:40:06;;;;;;;2.67;1.60;;;-6.50;97.90;;;;;;2049766;28;20249;-64
2024/01/21 03:41:06;;;;;;;2.83;1.60;;;-6.50;97.80;;;;;;2061036;28;20620;-63
2024/01/21 03:42:07;;;;;;;2.70;1.90;;;-6.50;97.80;;;;;;2067776;28;20214;-63
2024/01/21 03:43:08;;;;;;;3.63;1.90;;;-6.50;97.70;;;;;;2069241;28;20226;-65
2024/01/21 03:44:09;;;;;;;3.67;1.97;;;-6.50;97.50;;;;;;2066292;28;20193;-64
2024/01/21 03:45:09;;;;;;;2.33;1.33;;;-6.60;97.70;;;;;;2070014;28;20456;-64
2024/01/21 03:46:10;;;;;;;3.07;1.67;;;-6.60;97.80;;;;;;2052818;28;20233;-65
2024/01/21 03:47:10;;;;;;;2.33;1.43;;;-6.60;97.80;;;;;;2055304;28;20242;-65
2024/01/21 03:48:11;;;;;;;2.43;1.50;;;-6.70;98.00;;;;;;2061205;28;20189;-64
2024/01/21 03:49:12;;;;;;;3.50;1.80;;;-6.60;98.60;;;;;;2050692;28;20608;-65
2024/01/21 03:50:18;;;;;;;3.97;1.80;;;-6.70;98.50;;;;;;2050949;28;20198;-64
2024/01/21 03:51:19;;;;;;;1.88;1.50;;;-6.70;98.50;;;;;;2067339;28;20190;-65
2024/01/21 03:52:20;;;;;;;3.45;1.90;;;-6.70;98.50;;;;;;2069705;28;20622;-65
2024/01/21 03:53:21;;;;;;;2.50;1.80;;;-6.60;98.50;;;;;;2068972;28;20283;-63
2024/01/21 03:54:22;;;;;;;2.27;1.60;;;-6.60;98.30;;;;;;2061123;28;20230;-65
2024/01/21 03:55:22;;;;;;;2.53;1.50;;;-6.60;98.50;;;;;;2052347;28;20227;-65
2024/01/21 03:56:23;;;;;;;3.10;1.90;;;-6.60;98.70;;;;;;2060682;28;20221;-65
2024/01/21 03:57:24;;;;;;;3.57;1.47;;;-6.50;98.70;;;;;;2069728;28;20233;-65
2024/01/21 03:58:24;;;;;;;3.00;1.53;;;-6.60;98.60;;;;;;2069622;28;20258;-65
2024/01/21 03:59:25;;;;;;;2.40;1.60;;;-6.60;98.60;;;;;;2070251;28;20221;-65
2024/01/21 04:00:26;;;;;;;2.37;1.50;;;-6.70;98.60;;;;;;2060167;28;20701;-65
2024/01/21 04:01:27;;;;;;;3.70;1.97;;;-6.70;98.90;;;;;;2060565;28;20700;-65
2024/01/21 04:02:29;;;;;;;2.37;1.47;;;-6.80;98.80;;;;;;2069816;28;20313;-63
2024/01/21 04:03:30;;;;;;;2.58;1.70;;;-6.80;99.20;;;;;;2068806;28;20236;-65
2024/01/21 04:04:31;;;;;;;2.37;1.50;;;-6.80;99.20;;;;;;2065063;28;20248;-65
2024/01/21 04:05:31;;;;;;;2.43;1.70;;;-6.70;99.40;;;;;;2069791;28;20225;-65
2024/01/21 04:06:41;;;;;;;2.47;1.50;;;-6.70;99.30;;;;;;2062189;28;20256;-65
2024/01/21 04:07:42;;;;;;;7.95;2.17;;;-6.80;99.20;;;;;;2054615;28;20215;-65
2024/01/21 04:08:43;;;;;;;3.50;1.80;;;-6.60;99.80;;;;;;2061948;28;20296;-65
2024/01/21 04:09:44;;;;;;;1.80;1.40;;;-6.60;99.90;;;;;;2069298;28;20315;-64
2024/01/21 04:10:44;;;;;;;3.53;1.80;;;-6.60;99.90;;;;;;2069948;28;20603;-65
2024/01/21 04:11:45;;;;;;;2.73;1.80;;;-6.70;99.90;;;;;;2068044;28;20222;-65
2024/01/21 04:12:46;;;;;;;2.93;1.57;;;-6.70;99.90;;;;;;2057778;28;20218;-65
2024/01/21 04:13:46;;;;;;;3.37;1.47;;;-6.70;99.90;;;;;;2060519;28;20304;-65
2024/01/21 04:14:47;;;;;;;2.47;1.80;;;-6.70;99.90;;;;;;2070220;28;20340;-65
2024/01/21 04:15:48;;;;;;;3.67;1.80;;;-6.80;99.90;;;;;;2070035;28;20236;-65
2024/01/21 04:16:48;;;;;;;3.13;1.70;;;-6.70;99.90;;;;;;2060858;28;20222;-65
2024/01/21 04:17:49;;;;;;;5.37;2.33;;;-6.70;99.90;;;;;;2059391;28;20304;-65
2024/01/21 04:18:50;;;;;;;2.23;1.87;;;-6.50;99.90;;;;;;2069510;28;20295;-65
2024/01/21 04:19:50;;;;;;;2.57;1.80;;;-6.60;99.80;;;;;;2069858;28;20275;-65
2024/01/21 04:20:51;;;;;;;2.40;1.80;;;-6.50;99.80;;;;;;2069795;28;20217;-65
2024/01/21 04:21:52;;;;;;;3.13;1.80;;;-6.50;99.70;;;;;;2065739;28;20306;-65
2024/01/21 04:22:52;;;;;;;2.73;1.97;;;-6.40;99.70;;;;;;2066087;28;20787;-65
2024/01/21 04:23:53;;;;;;;2.67;1.90;;;-6.40;99.60;;;;;;2064805;28;20303;-65
2024/01/21 04:24:55;;;;;;;2.97;1.67;;;-6.30;99.50;;;;;;2052262;28;20233;-64
2024/01/21 04:25:55;;;;;;;3.45;2.60;;;-6.30;99.40;;;;;;2052526;28;20570;-65
2024/01/21 04:26:56;;;;;;;3.20;1.90;;;-6.30;99.40;;;;;;2054007;28;20223;-65
2024/01/21 04:27:57;;;;;;;3.13;1.93;;;-6.30;99.40;;;;;;2051545;28;20229;-65
2024/01/21 04:28:57;;;;;;;1.87;1.60;;;-6.20;99.70;;;;;;2061422;28;20217;-65
2024/01/21 04:29:58;;;;;;;2.83;1.70;;;-6.20;99.50;;;;;;2068465;28;20244;-64
2024/01/21 04:30:59;;;;;;;2.83;1.70;;;-6.20;99.40;;;;;;2059881;28;20242;-65
2024/01/21 04:31:59;;;;;;;2.50;1.90;;;-6.20;99.10;;;;;;2062741;28;20229;-65
2024/01/21 04:33:00;;;;;;;3.03;1.93;;;-6.20;99.20;;;;;;2062265;28;20277;-63
2024/01/21 04:34:01;;;;;;;2.70;1.77;;;-6.20;99.10;;;;;;2052874;28;20206;-63
2024/01/21 04:35:01;;;;;;;3.77;1.93;;;-6.20;99.00;;;;;;2061522;28;20194;-65
2024/01/21 04:36:03;;;;;;;3.07;1.83;;;-6.10;99.40;;;;;;2070090;28;20190;-64
2024/01/21 04:37:03;;;;;;;2.63;1.80;;;-6.20;99.30;;;;;;2072112;28;20225;-65
2024/01/21 04:38:04;;;;;;;2.43;1.60;;;-6.20;99.50;;;;;;2059767;28;20194;-65
2024/01/21 04:39:08;;;;;;;2.33;1.60;;;-6.20;99.40;;;;;;2058738;28;20191;-63
2024/01/21 04:40:10;;;;;;;3.92;2.00;;;-6.20;99.50;;;;;;2064484;28;20197;-65
2024/01/21 04:41:13;;;;;;;2.38;1.88;;;-6.20;99.40;;;;;;2070414;28;20204;-65
2024/01/21 04:42:13;;;;;;;2.78;1.90;;;-6.20;99.40;;;;;;2059678;28;20619;-65
2024/01/21 04:43:14;;;;;;;2.90;1.53;;;-6.10;99.20;;;;;;2060700;28;20222;-64
2024/01/21 04:44:15;;;;;;;2.53;1.70;;;-6.10;98.90;;;;;;2069052;28;20243;-65
2024/01/21 04:45:17;;;;;;;2.50;1.77;;;-6.20;98.80;;;;;;2060911;28;20194;-65
2024/01/21 04:46:18;;;;;;;2.38;1.90;;;-6.10;99.00;;;;;;2055088;28;20187;-64
2024/01/21 04:47:19;;;;;;;2.47;1.60;;;-6.10;99.30;;;;;;2063234;28;20243;-65
2024/01/21 04:48:19;;;;;;;4.33;1.73;;;-6.10;99.60;;;;;;2071344;28;20728;-64
2024/01/21 04:49:20;;;;;;;2.17;1.77;;;-6.10;99.20;;;;;;2070062;28;20376;-64
2024/01/21 04:50:21;;;;;;;3.60;2.10;;;-6.10;99.10;;;;;;2070622;28;20233;-65
2024/01/21 04:51:21;;;;;;;6.60;2.47;;;-6.10;98.90;;;;;;2069508;28;20312;-65
2024/01/21 04:52:22;;;;;;;4.00;2.30;;;-6.00;99.40;;;;;;2069229;28;20260;-63
2024/01/21 04:53:23;;;;;;;3.50;2.23;;;-6.00;99.70;;;;;;2063077;28;20226;-65
2024/01/21 04:54:23;;;;;;;4.50;2.40;;;-6.00;99.80;;;;;;2061865;28;20234;-65
2024/01/21 04:55:24;;;;;;;3.67;2.20;;;-6.00;99.60;;;;;;2071346;28;20240;-65
2024/01/21 04:56:25;;;;;;;3.23;2.13;;;-6.00;99.50;;;;;;2063343;28;20238;-65
2024/01/21 04:57:25;;;;;;;3.37;2.50;;;-6.00;99.30;;;;;;2064940;28;20343;-66
2024/01/21 04:58:26;;;;;;;5.07;2.47;;;-6.00;99.20;;;;;;2070760;28;20280;-65
2024/01/21 04:59:27;;;;;;;4.00;2.10;;;-6.00;99.30;;;;;;2070910;28;20703;-65
2024/01/21 05:00:27;;;;;;;5.20;3.17;;;-6.00;99.10;;;;;;2070276;28;21538;-65
2024/01/21 05:01:28;;;;;;;5.80;2.83;;;-5.90;99.30;;;;;;2069771;28;20338;-64
2024/01/21 05:02:29;;;;;;;3.90;2.47;;;-5.90;99.00;;;;;;2057945;28;20237;-65
2024/01/21 05:03:29;;;;;;;3.80;2.70;;;-5.90;99.00;;;;;;2049729;28;20354;-65
2024/01/21 05:04:30;;;;;;;3.33;2.20;;;-5.90;99.20;;;;;;2052107;28;20230;-65
2024/01/21 05:05:31;;;;;;;4.00;2.30;;;-5.90;99.30;;;;;;2063546;28;20215;-65
2024/01/21 05:06:31;;;;;;;3.97;2.20;;;-6.00;99.00;;;;;;2072279;28;20662;-65
2024/01/21 05:07:32;;;;;;;4.70;2.50;;;-6.00;99.10;;;;;;2072397;28;20238;-65
2024/01/21 05:08:33;;;;;;;3.53;2.27;;;-5.90;99.50;;;;;;2062920;28;20246;-65
2024/01/21 05:09:33;;;;;;;3.20;2.27;;;-6.00;99.50;;;;;;2060604;28;20276;-65
2024/01/21 05:10:35;;;;;;;3.90;2.47;;;-5.90;99.30;;;;;;2070736;28;20221;-64
2024/01/21 05:11:35;;;;;;;4.05;2.60;;;-5.90;99.30;;;;;;2061988;28;20218;-65
2024/01/21 05:12:37;;;;;;;2.80;2.30;;;-5.90;99.30;;;;;;2053557;28;20688;-65
2024/01/21 05:13:37;;;;;;;3.65;2.58;;;-5.80;99.60;;;;;;2054529;28;20714;-65
2024/01/21 05:14:38;;;;;;;3.53;2.40;;;-5.80;99.60;;;;;;2053822;28;20218;-66
2024/01/21 05:15:39;;;;;;;6.20;2.40;;;-5.90;99.70;;;;;;2060621;28;20241;-64
2024/01/21 05:16:40;;;;;;;3.83;2.73;;;-5.90;99.50;;;;;;2053602;28;20754;-64